sensor_id;sensor_type;location;lat;lon;timestamp;P1;durP1;ratioP1;P2;durP2;ratioP2
22282;SDS011;11310;51.528;21.204;2022-07-29T00:01:57;3.80;;;1.70;;
22282;SDS011;11310;51.528;21.204;2022-07-29T00:04:27;6.90;;;1.90;;
22282;SDS011;11310;51.528;21.204;2022-07-29T00:06:57;2.83;;;1.30;;
22282;SDS011;11310;51.528;21.204;2022-07-29T00:09:26;3.55;;;1.70;;
22282;SDS011;11310;51.528;21.204;2022-07-29T00:11:55;5.50;;;1.70;;
22282;SDS011;11310;51.528;21.204;2022-07-29T00:16:55;2.58;;;1.60;;
22282;SDS011;11310;51.528;21.204;2022-07-29T00:19:24;5.78;;;1.85;;
22282;SDS011;11310;51.528;21.204;2022-07-29T00:21:52;3.92;;;1.70;;
22282;SDS011;11310;51.528;21.204;2022-07-29T00:24:23;5.65;;;1.50;;
22282;SDS011;11310;51.528;21.204;2022-07-29T00:26:52;5.17;;;1.67;;
22282;SDS011;11310;51.528;21.204;2022-07-29T00:29:21;6.65;;;1.98;;
22282;SDS011;11310;51.528;21.204;2022-07-29T00:32:00;4.25;;;1.98;;
22282;SDS011;11310;51.528;21.204;2022-07-29T00:34:30;4.95;;;1.90;;
22282;SDS011;11310;51.528;21.204;2022-07-29T00:37:17;3.60;;;1.80;;
22282;SDS011;11310;51.528;21.204;2022-07-29T00:39:47;2.63;;;1.58;;
22282;SDS011;11310;51.528;21.204;2022-07-29T00:42:16;2.63;;;1.63;;
22282;SDS011;11310;51.528;21.204;2022-07-29T00:44:44;3.50;;;1.85;;
22282;SDS011;11310;51.528;21.204;2022-07-29T00:47:13;4.93;;;1.55;;
22282;SDS011;11310;51.528;21.204;2022-07-29T00:49:42;4.20;;;1.85;;
22282;SDS011;11310;51.528;21.204;2022-07-29T00:52:11;3.72;;;1.75;;
22282;SDS011;11310;51.528;21.204;2022-07-29T00:54:43;3.03;;;1.50;;
22282;SDS011;11310;51.528;21.204;2022-07-29T00:57:13;5.78;;;1.80;;
22282;SDS011;11310;51.528;21.204;2022-07-29T00:59:42;1.70;;;1.05;;
22282;SDS011;11310;51.528;21.204;2022-07-29T01:02:11;4.78;;;1.60;;
22282;SDS011;11310;51.528;21.204;2022-07-29T01:04:41;6.03;;;1.90;;
22282;SDS011;11310;51.528;21.204;2022-07-29T01:07:11;3.33;;;1.60;;
22282;SDS011;11310;51.528;21.204;2022-07-29T01:09:40;8.02;;;2.20;;
22282;SDS011;11310;51.528;21.204;2022-07-29T01:12:15;4.00;;;1.70;;
22282;SDS011;11310;51.528;21.204;2022-07-29T01:14:46;3.53;;;1.98;;
22282;SDS011;11310;51.528;21.204;2022-07-29T01:17:18;3.45;;;1.60;;
22282;SDS011;11310;51.528;21.204;2022-07-29T01:19:53;5.15;;;1.50;;
22282;SDS011;11310;51.528;21.204;2022-07-29T01:25:30;3.53;;;1.77;;
22282;SDS011;11310;51.528;21.204;2022-07-29T01:31:19;2.83;;;1.50;;
22282;SDS011;11310;51.528;21.204;2022-07-29T01:33:56;4.25;;;1.70;;
22282;SDS011;11310;51.528;21.204;2022-07-29T01:36:31;4.60;;;1.60;;
22282;SDS011;11310;51.528;21.204;2022-07-29T01:39:05;4.10;;;1.85;;
22282;SDS011;11310;51.528;21.204;2022-07-29T01:41:38;3.08;;;1.50;;
22282;SDS011;11310;51.528;21.204;2022-07-29T01:44:14;4.00;;;1.92;;
22282;SDS011;11310;51.528;21.204;2022-07-29T01:46:49;3.33;;;1.48;;
22282;SDS011;11310;51.528;21.204;2022-07-29T01:49:25;3.03;;;1.42;;
22282;SDS011;11310;51.528;21.204;2022-07-29T01:51:58;4.18;;;1.40;;
22282;SDS011;11310;51.528;21.204;2022-07-29T01:54:30;5.03;;;1.60;;
22282;SDS011;11310;51.528;21.204;2022-07-29T01:57:04;4.13;;;2.00;;
22282;SDS011;11310;51.528;21.204;2022-07-29T01:59:37;3.90;;;1.77;;
22282;SDS011;11310;51.528;21.204;2022-07-29T02:02:07;3.47;;;2.13;;
22282;SDS011;11310;51.528;21.204;2022-07-29T02:04:39;5.85;;;1.75;;
22282;SDS011;11310;51.528;21.204;2022-07-29T02:07:10;4.20;;;1.65;;
22282;SDS011;11310;51.528;21.204;2022-07-29T02:09:41;3.65;;;1.55;;
22282;SDS011;11310;51.528;21.204;2022-07-29T02:12:11;4.75;;;1.70;;
22282;SDS011;11310;51.528;21.204;2022-07-29T02:14:43;4.25;;;1.42;;
22282;SDS011;11310;51.528;21.204;2022-07-29T02:17:15;4.75;;;1.60;;
22282;SDS011;11310;51.528;21.204;2022-07-29T02:19:50;4.05;;;1.55;;
22282;SDS011;11310;51.528;21.204;2022-07-29T02:22:22;4.35;;;1.50;;
22282;SDS011;11310;51.528;21.204;2022-07-29T02:24:53;4.50;;;1.73;;
22282;SDS011;11310;51.528;21.204;2022-07-29T02:27:23;6.38;;;1.75;;
22282;SDS011;11310;51.528;21.204;2022-07-29T02:29:56;4.35;;;1.45;;
22282;SDS011;11310;51.528;21.204;2022-07-29T02:32:28;5.68;;;1.60;;
22282;SDS011;11310;51.528;21.204;2022-07-29T02:34:58;2.35;;;1.38;;
22282;SDS011;11310;51.528;21.204;2022-07-29T02:37:29;3.47;;;1.50;;
22282;SDS011;11310;51.528;21.204;2022-07-29T02:40:00;2.67;;;1.63;;
22282;SDS011;11310;51.528;21.204;2022-07-29T02:42:29;4.55;;;1.50;;
22282;SDS011;11310;51.528;21.204;2022-07-29T02:45:02;3.45;;;1.42;;
22282;SDS011;11310;51.528;21.204;2022-07-29T02:47:36;3.03;;;1.58;;
22282;SDS011;11310;51.528;21.204;2022-07-29T02:50:11;2.20;;;1.40;;
22282;SDS011;11310;51.528;21.204;2022-07-29T02:52:45;3.88;;;1.30;;
22282;SDS011;11310;51.528;21.204;2022-07-29T02:55:24;6.85;;;1.42;;
22282;SDS011;11310;51.528;21.204;2022-07-29T02:57:59;1.70;;;1.17;;
22282;SDS011;11310;51.528;21.204;2022-07-29T03:00:32;4.45;;;1.30;;
22282;SDS011;11310;51.528;21.204;2022-07-29T03:03:06;2.63;;;1.08;;
22282;SDS011;11310;51.528;21.204;2022-07-29T03:05:39;3.17;;;1.20;;
22282;SDS011;11310;51.528;21.204;2022-07-29T03:08:09;2.58;;;1.30;;
22282;SDS011;11310;51.528;21.204;2022-07-29T03:10:40;5.38;;;1.67;;
22282;SDS011;11310;51.528;21.204;2022-07-29T03:13:12;2.42;;;1.33;;
22282;SDS011;11310;51.528;21.204;2022-07-29T03:15:44;2.97;;;1.45;;
22282;SDS011;11310;51.528;21.204;2022-07-29T03:18:14;3.08;;;1.50;;
22282;SDS011;11310;51.528;21.204;2022-07-29T03:20:44;6.07;;;1.55;;
22282;SDS011;11310;51.528;21.204;2022-07-29T03:23:14;3.58;;;1.20;;
22282;SDS011;11310;51.528;21.204;2022-07-29T03:25:47;2.85;;;1.63;;
22282;SDS011;11310;51.528;21.204;2022-07-29T03:28:16;2.58;;;1.50;;
22282;SDS011;11310;51.528;21.204;2022-07-29T03:30:50;2.42;;;1.35;;
22282;SDS011;11310;51.528;21.204;2022-07-29T03:33:21;6.50;;;1.92;;
22282;SDS011;11310;51.528;21.204;2022-07-29T03:35:50;4.40;;;1.55;;
22282;SDS011;11310;51.528;21.204;2022-07-29T03:38:19;4.00;;;1.95;;
22282;SDS011;11310;51.528;21.204;2022-07-29T03:40:53;7.05;;;1.73;;
22282;SDS011;11310;51.528;21.204;2022-07-29T03:43:24;3.72;;;1.80;;
22282;SDS011;11310;51.528;21.204;2022-07-29T03:45:59;3.35;;;1.80;;
22282;SDS011;11310;51.528;21.204;2022-07-29T03:48:34;2.58;;;1.58;;
22282;SDS011;11310;51.528;21.204;2022-07-29T03:51:05;2.17;;;1.33;;
22282;SDS011;11310;51.528;21.204;2022-07-29T03:53:34;3.85;;;1.20;;
22282;SDS011;11310;51.528;21.204;2022-07-29T03:56:04;4.50;;;1.35;;
22282;SDS011;11310;51.528;21.204;2022-07-29T03:58:35;5.10;;;1.48;;
22282;SDS011;11310;51.528;21.204;2022-07-29T04:01:07;3.40;;;1.20;;
22282;SDS011;11310;51.528;21.204;2022-07-29T04:03:37;4.82;;;1.27;;
22282;SDS011;11310;51.528;21.204;2022-07-29T04:06:07;1.73;;;1.15;;
22282;SDS011;11310;51.528;21.204;2022-07-29T04:08:36;2.55;;;1.50;;
22282;SDS011;11310;51.528;21.204;2022-07-29T04:11:05;1.95;;;1.30;;
22282;SDS011;11310;51.528;21.204;2022-07-29T04:13:34;2.05;;;1.17;;
22282;SDS011;11310;51.528;21.204;2022-07-29T04:16:07;2.10;;;1.08;;
22282;SDS011;11310;51.528;21.204;2022-07-29T04:18:36;2.22;;;1.27;;
22282;SDS011;11310;51.528;21.204;2022-07-29T04:21:05;2.95;;;1.33;;
22282;SDS011;11310;51.528;21.204;2022-07-29T04:23:34;1.90;;;1.20;;
22282;SDS011;11310;51.528;21.204;2022-07-29T04:26:19;1.75;;;1.17;;
22282;SDS011;11310;51.528;21.204;2022-07-29T04:28:48;3.72;;;1.48;;
22282;SDS011;11310;51.528;21.204;2022-07-29T04:31:18;2.30;;;1.40;;
22282;SDS011;11310;51.528;21.204;2022-07-29T04:33:53;4.40;;;1.58;;
22282;SDS011;11310;51.528;21.204;2022-07-29T04:36:21;2.28;;;1.42;;
22282;SDS011;11310;51.528;21.204;2022-07-29T04:38:56;3.55;;;1.40;;
22282;SDS011;11310;51.528;21.204;2022-07-29T04:41:25;1.92;;;1.10;;
22282;SDS011;11310;51.528;21.204;2022-07-29T04:43:59;2.78;;;1.17;;
22282;SDS011;11310;51.528;21.204;2022-07-29T04:46:34;4.07;;;1.77;;
22282;SDS011;11310;51.528;21.204;2022-07-29T04:49:04;2.33;;;1.55;;
22282;SDS011;11310;51.528;21.204;2022-07-29T04:51:32;2.60;;;1.25;;
22282;SDS011;11310;51.528;21.204;2022-07-29T04:54:01;4.65;;;1.30;;
22282;SDS011;11310;51.528;21.204;2022-07-29T04:56:30;4.50;;;1.40;;
22282;SDS011;11310;51.528;21.204;2022-07-29T04:58:59;4.70;;;1.50;;
22282;SDS011;11310;51.528;21.204;2022-07-29T05:01:29;2.20;;;1.50;;
22282;SDS011;11310;51.528;21.204;2022-07-29T05:03:59;2.63;;;1.40;;
22282;SDS011;11310;51.528;21.204;2022-07-29T05:06:29;4.38;;;1.55;;
22282;SDS011;11310;51.528;21.204;2022-07-29T05:08:58;4.13;;;1.80;;
22282;SDS011;11310;51.528;21.204;2022-07-29T05:11:27;4.35;;;2.40;;
22282;SDS011;11310;51.528;21.204;2022-07-29T05:13:57;4.72;;;2.22;;
22282;SDS011;11310;51.528;21.204;2022-07-29T05:16:26;3.55;;;1.83;;
22282;SDS011;11310;51.528;21.204;2022-07-29T05:18:55;5.03;;;2.00;;
22282;SDS011;11310;51.528;21.204;2022-07-29T05:21:25;4.75;;;2.17;;
22282;SDS011;11310;51.528;21.204;2022-07-29T05:23:54;5.78;;;2.38;;
22282;SDS011;11310;51.528;21.204;2022-07-29T05:26:23;6.30;;;2.38;;
22282;SDS011;11310;51.528;21.204;2022-07-29T05:28:52;5.47;;;2.50;;
22282;SDS011;11310;51.528;21.204;2022-07-29T05:31:23;5.32;;;2.40;;
22282;SDS011;11310;51.528;21.204;2022-07-29T05:33:52;7.07;;;2.50;;
22282;SDS011;11310;51.528;21.204;2022-07-29T05:36:21;4.38;;;2.25;;
22282;SDS011;11310;51.528;21.204;2022-07-29T05:38:51;4.38;;;2.28;;
22282;SDS011;11310;51.528;21.204;2022-07-29T05:41:20;5.53;;;2.35;;
22282;SDS011;11310;51.528;21.204;2022-07-29T05:43:49;5.53;;;2.50;;
22282;SDS011;11310;51.528;21.204;2022-07-29T05:46:17;7.07;;;2.33;;
22282;SDS011;11310;51.528;21.204;2022-07-29T05:48:47;8.93;;;4.13;;
22282;SDS011;11310;51.528;21.204;2022-07-29T05:51:15;7.53;;;3.85;;
22282;SDS011;11310;51.528;21.204;2022-07-29T05:53:44;8.27;;;3.33;;
22282;SDS011;11310;51.528;21.204;2022-07-29T05:56:16;4.90;;;2.70;;
22282;SDS011;11310;51.528;21.204;2022-07-29T05:58:45;4.75;;;2.38;;
22282;SDS011;11310;51.528;21.204;2022-07-29T06:01:13;6.75;;;2.25;;
22282;SDS011;11310;51.528;21.204;2022-07-29T06:03:43;4.90;;;2.13;;
22282;SDS011;11310;51.528;21.204;2022-07-29T06:06:12;4.20;;;1.92;;
22282;SDS011;11310;51.528;21.204;2022-07-29T06:08:41;3.63;;;1.77;;
22282;SDS011;11310;51.528;21.204;2022-07-29T06:11:10;4.75;;;1.95;;
22282;SDS011;11310;51.528;21.204;2022-07-29T06:13:40;4.75;;;1.95;;
22282;SDS011;11310;51.528;21.204;2022-07-29T06:16:09;3.88;;;1.98;;
22282;SDS011;11310;51.528;21.204;2022-07-29T06:18:42;5.35;;;1.67;;
22282;SDS011;11310;51.528;21.204;2022-07-29T06:21:11;5.38;;;1.95;;
22282;SDS011;11310;51.528;21.204;2022-07-29T06:23:41;3.65;;;1.70;;
22282;SDS011;11310;51.528;21.204;2022-07-29T06:26:10;4.00;;;1.80;;
22282;SDS011;11310;51.528;21.204;2022-07-29T06:28:40;3.33;;;1.63;;
22282;SDS011;11310;51.528;21.204;2022-07-29T06:31:08;4.82;;;1.80;;
22282;SDS011;11310;51.528;21.204;2022-07-29T06:33:37;3.38;;;1.70;;
22282;SDS011;11310;51.528;21.204;2022-07-29T06:36:06;7.10;;;1.88;;
22282;SDS011;11310;51.528;21.204;2022-07-29T06:38:38;4.82;;;1.80;;
22282;SDS011;11310;51.528;21.204;2022-07-29T06:41:15;6.65;;;1.77;;
22282;SDS011;11310;51.528;21.204;2022-07-29T06:43:46;3.88;;;1.40;;
22282;SDS011;11310;51.528;21.204;2022-07-29T06:46:19;2.15;;;1.00;;
22282;SDS011;11310;51.528;21.204;2022-07-29T06:48:51;3.08;;;1.42;;
22282;SDS011;11310;51.528;21.204;2022-07-29T06:51:20;2.72;;;1.30;;
22282;SDS011;11310;51.528;21.204;2022-07-29T06:53:50;3.08;;;1.27;;
22282;SDS011;11310;51.528;21.204;2022-07-29T06:56:28;5.18;;;1.40;;
22282;SDS011;11310;51.528;21.204;2022-07-29T06:59:08;4.95;;;1.17;;
22282;SDS011;11310;51.528;21.204;2022-07-29T07:01:39;2.47;;;1.50;;
22282;SDS011;11310;51.528;21.204;2022-07-29T07:04:10;4.93;;;1.50;;
22282;SDS011;11310;51.528;21.204;2022-07-29T07:06:40;5.53;;;1.27;;
22282;SDS011;11310;51.528;21.204;2022-07-29T07:09:10;3.05;;;0.98;;
22282;SDS011;11310;51.528;21.204;2022-07-29T07:11:38;7.65;;;1.88;;
22282;SDS011;11310;51.528;21.204;2022-07-29T07:14:09;4.35;;;1.30;;
22282;SDS011;11310;51.528;21.204;2022-07-29T07:16:37;2.80;;;1.27;;
22282;SDS011;11310;51.528;21.204;2022-07-29T07:19:06;3.58;;;1.10;;
22282;SDS011;11310;51.528;21.204;2022-07-29T07:21:35;3.22;;;1.23;;
22282;SDS011;11310;51.528;21.204;2022-07-29T07:24:04;2.30;;;1.20;;
22282;SDS011;11310;51.528;21.204;2022-07-29T07:26:34;3.67;;;1.20;;
22282;SDS011;11310;51.528;21.204;2022-07-29T07:29:02;1.92;;;0.80;;
22282;SDS011;11310;51.528;21.204;2022-07-29T07:31:33;2.15;;;0.77;;
22282;SDS011;11310;51.528;21.204;2022-07-29T07:34:03;1.92;;;1.00;;
22282;SDS011;11310;51.528;21.204;2022-07-29T07:36:31;3.03;;;1.30;;
22282;SDS011;11310;51.528;21.204;2022-07-29T07:39:00;3.17;;;0.95;;
22282;SDS011;11310;51.528;21.204;2022-07-29T07:41:30;5.40;;;1.70;;
22282;SDS011;11310;51.528;21.204;2022-07-29T07:43:59;12.65;;;1.60;;
22282;SDS011;11310;51.528;21.204;2022-07-29T07:46:28;5.57;;;0.95;;
22282;SDS011;11310;51.528;21.204;2022-07-29T07:48:58;3.70;;;1.17;;
22282;SDS011;11310;51.528;21.204;2022-07-29T07:51:27;4.03;;;0.90;;
22282;SDS011;11310;51.528;21.204;2022-07-29T07:53:56;2.63;;;0.75;;
22282;SDS011;11310;51.528;21.204;2022-07-29T07:56:29;2.88;;;0.75;;
22282;SDS011;11310;51.528;21.204;2022-07-29T07:59:01;5.90;;;1.15;;
22282;SDS011;11310;51.528;21.204;2022-07-29T08:01:29;2.28;;;0.70;;
22282;SDS011;11310;51.528;21.204;2022-07-29T08:04:20;4.47;;;1.10;;
22282;SDS011;11310;51.528;21.204;2022-07-29T08:06:54;3.20;;;1.08;;
22282;SDS011;11310;51.528;21.204;2022-07-29T08:09:24;2.22;;;0.90;;
22282;SDS011;11310;51.528;21.204;2022-07-29T08:11:56;4.50;;;1.02;;
22282;SDS011;11310;51.528;21.204;2022-07-29T08:14:25;5.00;;;0.98;;
22282;SDS011;11310;51.528;21.204;2022-07-29T08:16:54;3.75;;;1.20;;
22282;SDS011;11310;51.528;21.204;2022-07-29T08:19:24;1.70;;;0.77;;
22282;SDS011;11310;51.528;21.204;2022-07-29T08:21:54;2.97;;;0.85;;
22282;SDS011;11310;51.528;21.204;2022-07-29T08:24:22;1.63;;;0.90;;
22282;SDS011;11310;51.528;21.204;2022-07-29T08:27:09;2.15;;;0.80;;
22282;SDS011;11310;51.528;21.204;2022-07-29T08:29:59;1.38;;;0.70;;
22282;SDS011;11310;51.528;21.204;2022-07-29T08:32:28;1.35;;;0.80;;
22282;SDS011;11310;51.528;21.204;2022-07-29T08:35:19;2.00;;;0.80;;
22282;SDS011;11310;51.528;21.204;2022-07-29T08:37:49;3.72;;;0.85;;
22282;SDS011;11310;51.528;21.204;2022-07-29T08:40:18;2.10;;;0.90;;
22282;SDS011;11310;51.528;21.204;2022-07-29T08:42:58;2.45;;;0.60;;
22282;SDS011;11310;51.528;21.204;2022-07-29T08:45:35;2.67;;;0.88;;
22282;SDS011;11310;51.528;21.204;2022-07-29T08:48:13;2.80;;;0.80;;
22282;SDS011;11310;51.528;21.204;2022-07-29T08:50:44;1.02;;;0.50;;
22282;SDS011;11310;51.528;21.204;2022-07-29T08:55:45;2.63;;;0.70;;
22282;SDS011;11310;51.528;21.204;2022-07-29T08:58:15;2.22;;;0.63;;
22282;SDS011;11310;51.528;21.204;2022-07-29T09:00:51;2.80;;;0.80;;
22282;SDS011;11310;51.528;21.204;2022-07-29T09:05:53;1.67;;;0.50;;
22282;SDS011;11310;51.528;21.204;2022-07-29T09:08:22;4.78;;;0.88;;
22282;SDS011;11310;51.528;21.204;2022-07-29T09:10:51;3.65;;;0.63;;
22282;SDS011;11310;51.528;21.204;2022-07-29T09:13:20;2.70;;;0.70;;
22282;SDS011;11310;51.528;21.204;2022-07-29T09:15:49;2.25;;;0.70;;
22282;SDS011;11310;51.528;21.204;2022-07-29T09:18:32;2.53;;;0.60;;
22282;SDS011;11310;51.528;21.204;2022-07-29T09:21:03;1.10;;;0.73;;
22282;SDS011;11310;51.528;21.204;2022-07-29T09:24:03;1.17;;;0.50;;
22282;SDS011;11310;51.528;21.204;2022-07-29T09:26:36;2.63;;;0.47;;
22282;SDS011;11310;51.528;21.204;2022-07-29T09:29:08;3.35;;;0.60;;
22282;SDS011;11310;51.528;21.204;2022-07-29T09:31:39;4.70;;;1.02;;
22282;SDS011;11310;51.528;21.204;2022-07-29T09:34:09;0.63;;;0.40;;
22282;SDS011;11310;51.528;21.204;2022-07-29T09:36:40;0.90;;;0.50;;
22282;SDS011;11310;51.528;21.204;2022-07-29T09:39:11;1.05;;;0.55;;
22282;SDS011;11310;51.528;21.204;2022-07-29T09:41:44;0.47;;;0.38;;
22282;SDS011;11310;51.528;21.204;2022-07-29T09:44:14;4.07;;;0.80;;
22282;SDS011;11310;51.528;21.204;2022-07-29T09:46:55;2.38;;;0.82;;
22282;SDS011;11310;51.528;21.204;2022-07-29T09:49:25;0.52;;;0.35;;
22282;SDS011;11310;51.528;21.204;2022-07-29T09:52:06;7.70;;;1.20;;
22282;SDS011;11310;51.528;21.204;2022-07-29T09:54:35;2.58;;;0.50;;
22282;SDS011;11310;51.528;21.204;2022-07-29T09:57:05;3.65;;;0.60;;
22282;SDS011;11310;51.528;21.204;2022-07-29T09:59:36;2.00;;;0.70;;
22282;SDS011;11310;51.528;21.204;2022-07-29T10:02:17;4.28;;;0.93;;
22282;SDS011;11310;51.528;21.204;2022-07-29T10:04:49;1.10;;;0.38;;
22282;SDS011;11310;51.528;21.204;2022-07-29T10:07:20;2.22;;;0.73;;
22282;SDS011;11310;51.528;21.204;2022-07-29T10:09:52;1.08;;;0.30;;
22282;SDS011;11310;51.528;21.204;2022-07-29T10:12:22;1.77;;;0.40;;
22282;SDS011;11310;51.528;21.204;2022-07-29T10:14:52;3.85;;;0.75;;
22282;SDS011;11310;51.528;21.204;2022-07-29T10:17:23;6.50;;;0.85;;
22282;SDS011;11310;51.528;21.204;2022-07-29T10:19:51;0.73;;;0.32;;
22282;SDS011;11310;51.528;21.204;2022-07-29T10:22:22;2.33;;;0.50;;
22282;SDS011;11310;51.528;21.204;2022-07-29T10:25:11;2.05;;;0.30;;
22282;SDS011;11310;51.528;21.204;2022-07-29T10:27:40;0.80;;;0.30;;
22282;SDS011;11310;51.528;21.204;2022-07-29T10:30:11;3.95;;;0.40;;
22282;SDS011;11310;51.528;21.204;2022-07-29T10:32:53;1.92;;;0.73;;
22282;SDS011;11310;51.528;21.204;2022-07-29T10:35:37;2.33;;;0.55;;
22282;SDS011;11310;51.528;21.204;2022-07-29T10:38:20;1.00;;;0.30;;
22282;SDS011;11310;51.528;21.204;2022-07-29T10:41:01;3.67;;;0.57;;
22282;SDS011;11310;51.528;21.204;2022-07-29T10:43:59;1.95;;;0.65;;
22282;SDS011;11310;51.528;21.204;2022-07-29T10:46:34;3.55;;;0.50;;
22282;SDS011;11310;51.528;21.204;2022-07-29T10:49:10;2.30;;;0.57;;
22282;SDS011;11310;51.528;21.204;2022-07-29T10:51:51;4.32;;;0.80;;
22282;SDS011;11310;51.528;21.204;2022-07-29T10:54:38;12.85;;;1.27;;
22282;SDS011;11310;51.528;21.204;2022-07-29T10:57:13;2.67;;;0.60;;
22282;SDS011;11310;51.528;21.204;2022-07-29T11:00:25;2.42;;;0.32;;
22282;SDS011;11310;51.528;21.204;2022-07-29T11:02:55;2.25;;;0.50;;
22282;SDS011;11310;51.528;21.204;2022-07-29T11:05:25;4.13;;;0.47;;
22282;SDS011;11310;51.528;21.204;2022-07-29T11:08:19;2.95;;;0.70;;
22282;SDS011;11310;51.528;21.204;2022-07-29T11:14:18;2.38;;;0.82;;
22282;SDS011;11310;51.528;21.204;2022-07-29T11:17:29;5.10;;;1.73;;
22282;SDS011;11310;51.528;21.204;2022-07-29T11:20:32;4.93;;;0.85;;
22282;SDS011;11310;51.528;21.204;2022-07-29T11:23:25;1.77;;;0.63;;
22282;SDS011;11310;51.528;21.204;2022-07-29T11:26:16;1.73;;;0.60;;
22282;SDS011;11310;51.528;21.204;2022-07-29T11:29:00;2.85;;;0.60;;
22282;SDS011;11310;51.528;21.204;2022-07-29T11:31:36;3.45;;;1.02;;
22282;SDS011;11310;51.528;21.204;2022-07-29T11:34:18;2.38;;;0.57;;
22282;SDS011;11310;51.528;21.204;2022-07-29T11:40:10;1.00;;;0.50;;
22282;SDS011;11310;51.528;21.204;2022-07-29T11:42:48;1.95;;;0.95;;
22282;SDS011;11310;51.528;21.204;2022-07-29T11:45:46;4.95;;;0.63;;
22282;SDS011;11310;51.528;21.204;2022-07-29T11:48:18;2.15;;;0.70;;
22282;SDS011;11310;51.528;21.204;2022-07-29T11:50:58;1.52;;;0.50;;
22282;SDS011;11310;51.528;21.204;2022-07-29T11:53:29;3.75;;;0.50;;
22282;SDS011;11310;51.528;21.204;2022-07-29T11:56:00;3.72;;;1.20;;
22282;SDS011;11310;51.528;21.204;2022-07-29T11:58:30;1.80;;;0.70;;
22282;SDS011;11310;51.528;21.204;2022-07-29T12:01:00;1.25;;;0.50;;
22282;SDS011;11310;51.528;21.204;2022-07-29T12:03:32;2.25;;;0.50;;
22282;SDS011;11310;51.528;21.204;2022-07-29T12:06:03;1.60;;;0.57;;
22282;SDS011;11310;51.528;21.204;2022-07-29T12:08:41;4.03;;;0.88;;
22282;SDS011;11310;51.528;21.204;2022-07-29T12:11:17;1.73;;;0.60;;
22282;SDS011;11310;51.528;21.204;2022-07-29T12:13:49;2.20;;;0.90;;
22282;SDS011;11310;51.528;21.204;2022-07-29T12:16:20;1.13;;;0.52;;
22282;SDS011;11310;51.528;21.204;2022-07-29T12:18:58;1.40;;;0.70;;
22282;SDS011;11310;51.528;21.204;2022-07-29T12:21:28;2.95;;;0.80;;
22282;SDS011;11310;51.528;21.204;2022-07-29T12:23:58;3.78;;;0.70;;
22282;SDS011;11310;51.528;21.204;2022-07-29T12:26:36;1.45;;;0.63;;
22282;SDS011;11310;51.528;21.204;2022-07-29T12:32:01;7.93;;;1.10;;
22282;SDS011;11310;51.528;21.204;2022-07-29T12:34:42;4.60;;;2.10;;
22282;SDS011;11310;51.528;21.204;2022-07-29T12:37:11;10.75;;;3.13;;
22282;SDS011;11310;51.528;21.204;2022-07-29T12:39:40;6.20;;;2.00;;
22282;SDS011;11310;51.528;21.204;2022-07-29T12:42:11;4.82;;;1.27;;
22282;SDS011;11310;51.528;21.204;2022-07-29T12:44:45;2.20;;;0.85;;
22282;SDS011;11310;51.528;21.204;2022-07-29T12:47:15;2.10;;;0.80;;
22282;SDS011;11310;51.528;21.204;2022-07-29T12:49:48;7.78;;;2.00;;
22282;SDS011;11310;51.528;21.204;2022-07-29T12:52:25;6.32;;;1.88;;
22282;SDS011;11310;51.528;21.204;2022-07-29T12:54:55;5.13;;;2.00;;
22282;SDS011;11310;51.528;21.204;2022-07-29T12:57:23;5.57;;;2.03;;
22282;SDS011;11310;51.528;21.204;2022-07-29T13:00:00;3.63;;;1.77;;
22282;SDS011;11310;51.528;21.204;2022-07-29T13:02:32;5.38;;;1.40;;
22282;SDS011;11310;51.528;21.204;2022-07-29T13:05:06;2.05;;;0.80;;
22282;SDS011;11310;51.528;21.204;2022-07-29T13:07:36;1.52;;;0.68;;
22282;SDS011;11310;51.528;21.204;2022-07-29T13:10:23;2.65;;;1.20;;
22282;SDS011;11310;51.528;21.204;2022-07-29T13:13:03;8.25;;;3.00;;
22282;SDS011;11310;51.528;21.204;2022-07-29T13:15:33;6.15;;;2.63;;
22282;SDS011;11310;51.528;21.204;2022-07-29T13:18:04;5.57;;;2.30;;
22282;SDS011;11310;51.528;21.204;2022-07-29T13:20:35;2.47;;;1.27;;
22282;SDS011;11310;51.528;21.204;2022-07-29T13:23:03;3.35;;;1.08;;
22282;SDS011;11310;51.528;21.204;2022-07-29T13:25:36;1.08;;;0.68;;
22282;SDS011;11310;51.528;21.204;2022-07-29T13:28:07;2.57;;;1.17;;
22282;SDS011;11310;51.528;21.204;2022-07-29T13:30:39;2.47;;;0.80;;
22282;SDS011;11310;51.528;21.204;2022-07-29T13:33:10;1.30;;;0.60;;
22282;SDS011;11310;51.528;21.204;2022-07-29T13:35:41;0.88;;;0.60;;
22282;SDS011;11310;51.528;21.204;2022-07-29T13:38:10;2.00;;;0.73;;
22282;SDS011;11310;51.528;21.204;2022-07-29T13:40:40;1.38;;;0.60;;
22282;SDS011;11310;51.528;21.204;2022-07-29T13:43:09;2.53;;;0.85;;
22282;SDS011;11310;51.528;21.204;2022-07-29T13:45:39;2.20;;;0.60;;
22282;SDS011;11310;51.528;21.204;2022-07-29T13:48:08;1.80;;;0.80;;
22282;SDS011;11310;51.528;21.204;2022-07-29T13:50:38;4.03;;;0.98;;
22282;SDS011;11310;51.528;21.204;2022-07-29T13:53:08;1.10;;;0.65;;
22282;SDS011;11310;51.528;21.204;2022-07-29T13:55:43;6.20;;;0.68;;
22282;SDS011;11310;51.528;21.204;2022-07-29T13:58:14;3.10;;;0.80;;
22282;SDS011;11310;51.528;21.204;2022-07-29T14:00:42;1.45;;;0.80;;
22282;SDS011;11310;51.528;21.204;2022-07-29T14:03:12;4.35;;;0.85;;
22282;SDS011;11310;51.528;21.204;2022-07-29T14:05:40;2.35;;;0.70;;
22282;SDS011;11310;51.528;21.204;2022-07-29T14:08:11;4.88;;;0.70;;
22282;SDS011;11310;51.528;21.204;2022-07-29T14:10:40;3.45;;;0.90;;
22282;SDS011;11310;51.528;21.204;2022-07-29T14:13:09;2.33;;;0.90;;
22282;SDS011;11310;51.528;21.204;2022-07-29T14:15:52;2.95;;;1.10;;
22282;SDS011;11310;51.528;21.204;2022-07-29T14:18:21;10.18;;;2.40;;
22282;SDS011;11310;51.528;21.204;2022-07-29T14:20:50;5.82;;;1.65;;
22282;SDS011;11310;51.528;21.204;2022-07-29T14:23:21;5.47;;;1.33;;
22282;SDS011;11310;51.528;21.204;2022-07-29T14:25:52;3.78;;;0.95;;
22282;SDS011;11310;51.528;21.204;2022-07-29T14:28:20;2.85;;;0.90;;
22282;SDS011;11310;51.528;21.204;2022-07-29T14:30:49;1.13;;;0.60;;
22282;SDS011;11310;51.528;21.204;2022-07-29T14:33:18;1.73;;;0.68;;
22282;SDS011;11310;51.528;21.204;2022-07-29T14:35:47;1.73;;;0.63;;
22282;SDS011;11310;51.528;21.204;2022-07-29T14:38:16;8.50;;;2.42;;
22282;SDS011;11310;51.528;21.204;2022-07-29T14:40:46;8.77;;;2.50;;
22282;SDS011;11310;51.528;21.204;2022-07-29T14:43:18;3.92;;;1.13;;
22282;SDS011;11310;51.528;21.204;2022-07-29T14:45:47;3.25;;;1.08;;
22282;SDS011;11310;51.528;21.204;2022-07-29T14:48:17;3.45;;;1.00;;
22282;SDS011;11310;51.528;21.204;2022-07-29T14:50:46;5.18;;;1.08;;
22282;SDS011;11310;51.528;21.204;2022-07-29T14:53:17;4.90;;;0.85;;
22282;SDS011;11310;51.528;21.204;2022-07-29T14:55:47;1.52;;;0.60;;
22282;SDS011;11310;51.528;21.204;2022-07-29T14:58:17;2.13;;;0.55;;
22282;SDS011;11310;51.528;21.204;2022-07-29T15:00:48;7.50;;;1.13;;
22282;SDS011;11310;51.528;21.204;2022-07-29T15:03:16;4.97;;;1.40;;
22282;SDS011;11310;51.528;21.204;2022-07-29T15:05:50;3.13;;;1.20;;
22282;SDS011;11310;51.528;21.204;2022-07-29T15:08:19;2.00;;;1.38;;
22282;SDS011;11310;51.528;21.204;2022-07-29T15:10:49;5.75;;;1.80;;
22282;SDS011;11310;51.528;21.204;2022-07-29T15:13:18;1.85;;;1.02;;
22282;SDS011;11310;51.528;21.204;2022-07-29T15:15:47;2.33;;;0.93;;
22282;SDS011;11310;51.528;21.204;2022-07-29T15:18:16;5.70;;;1.88;;
22282;SDS011;11310;51.528;21.204;2022-07-29T15:20:51;2.22;;;1.23;;
22282;SDS011;11310;51.528;21.204;2022-07-29T15:23:20;2.83;;;1.17;;
22282;SDS011;11310;51.528;21.204;2022-07-29T15:25:50;2.25;;;1.05;;
22282;SDS011;11310;51.528;21.204;2022-07-29T15:28:19;6.57;;;2.30;;